createdAt,value
2022-11-21T00:01:11.876Z,100.00
2022-11-21T00:03:38.577Z,100.00
2022-11-21T00:06:05.060Z,100.00
2022-11-21T00:08:31.418Z,100.00
2022-11-21T00:11:01.201Z,99.96
2022-11-21T00:13:27.768Z,99.88
2022-11-21T00:15:54.331Z,99.57
2022-11-21T00:18:20.753Z,100.00
2022-11-21T00:20:47.171Z,100.00
2022-11-21T00:23:13.596Z,99.89
2022-11-21T00:25:40.042Z,100.00
2022-11-21T00:28:06.492Z,100.00
2022-11-21T00:30:33.091Z,100.00
2022-11-21T00:32:59.592Z,100.00
2022-11-21T00:35:30.788Z,100.00
2022-11-21T00:37:57.142Z,100.00
2022-11-21T00:40:23.653Z,99.55
2022-11-21T00:42:50.052Z,100.00
2022-11-21T00:45:22.723Z,99.94
2022-11-21T00:47:50.611Z,99.67
2022-11-21T00:50:17.274Z,100.00
2022-11-21T00:52:43.735Z,100.00
2022-11-21T00:55:10.217Z,100.00
2022-11-21T00:57:36.695Z,100.00
2022-11-21T01:00:04.949Z,99.94
2022-11-21T01:02:32.737Z,100.00
2022-11-21T01:04:59.095Z,99.50
2022-11-21T01:07:25.697Z,100.00
2022-11-21T01:09:52.147Z,100.00
2022-11-21T01:12:18.503Z,99.54
2022-11-21T01:14:44.949Z,100.00
2022-11-21T01:17:11.301Z,99.86
2022-11-21T01:19:37.719Z,99.56
2022-11-21T01:22:04.185Z,99.58
2022-11-21T01:24:30.656Z,100.00
2022-11-21T01:26:57.085Z,100.00
2022-11-21T01:29:23.510Z,99.92
2022-11-21T01:31:50.272Z,99.70
2022-11-21T01:34:17.274Z,100.00
2022-11-21T01:36:43.652Z,99.46
2022-11-21T01:39:10.859Z,99.48
2022-11-21T01:41:41.226Z,99.46
2022-11-21T01:44:45.684Z,99.67
2022-11-21T01:47:12.943Z,98.63
2022-11-21T01:49:40.906Z,99.07
2022-11-21T01:52:25.970Z,99.62
2022-11-21T01:55:01.168Z,99.69
2022-11-21T01:57:37.892Z,99.30
2022-11-21T02:00:10.345Z,99.82
2022-11-21T02:02:47.870Z,99.36
2022-11-21T02:05:18.899Z,99.06
2022-11-21T02:07:48.266Z,99.35
2022-11-21T02:10:16.471Z,99.09
2022-11-21T02:13:12.579Z,99.47
2022-11-21T02:15:39.167Z,99.26
2022-11-21T02:18:11.640Z,99.47
2022-11-21T02:20:41.637Z,99.24
2022-11-21T02:23:19.350Z,99.37
2022-11-21T02:25:45.787Z,99.12
2022-11-21T02:28:16.439Z,99.09
2022-11-21T02:30:43.771Z,99.54
2022-11-21T02:33:11.146Z,99.50
2022-11-21T02:35:37.792Z,98.88
2022-11-21T02:38:11.836Z,99.45
2022-11-21T02:40:43.999Z,99.09
2022-11-21T02:43:18.826Z,99.47
2022-11-21T02:45:46.523Z,98.63
2022-11-21T02:48:13.460Z,98.85
2022-11-21T02:50:45.617Z,99.29
2022-11-21T02:53:15.420Z,98.75
2022-11-21T02:55:42.481Z,99.59
2022-11-21T02:58:08.894Z,98.60
2022-11-21T03:00:36.806Z,98.92
2022-11-21T03:03:03.597Z,99.20
2022-11-21T03:05:30.823Z,98.89
2022-11-21T03:07:57.299Z,99.38
2022-11-21T03:10:23.764Z,98.74
2022-11-21T03:12:50.159Z,98.81
2022-11-21T03:15:16.718Z,98.65
2022-11-21T03:17:43.409Z,99.22
2022-11-21T03:20:10.899Z,98.86
2022-11-21T03:22:37.459Z,98.62
2022-11-21T03:25:04.121Z,98.84
2022-11-21T03:27:30.683Z,98.72
2022-11-21T03:29:57.170Z,99.12
2022-11-21T03:32:23.595Z,98.85
2022-11-21T03:34:50.188Z,99.21
2022-11-21T03:37:17.043Z,98.52
2022-11-21T03:39:43.681Z,98.42
2022-11-21T03:42:10.231Z,99.21
2022-11-21T03:44:36.628Z,99.35
2022-11-21T03:47:03.012Z,99.00
2022-11-21T03:49:29.475Z,99.14
2022-11-21T03:51:55.905Z,99.44
2022-11-21T03:54:22.289Z,100.00
2022-11-21T03:56:48.719Z,99.71
2022-11-21T03:59:15.146Z,99.52
2022-11-21T04:01:41.589Z,99.29
2022-11-21T04:04:08.045Z,99.41
2022-11-21T04:06:34.490Z,99.49
2022-11-21T04:09:00.877Z,99.29
2022-11-21T04:11:27.363Z,99.48
2022-11-21T04:13:53.753Z,99.64
2022-11-21T04:16:20.370Z,99.73
2022-11-21T04:18:46.995Z,100.00
2022-11-21T04:21:13.596Z,99.36
2022-11-21T04:23:39.928Z,100.00
2022-11-21T04:26:06.358Z,99.59
2022-11-21T04:28:33.117Z,99.66
2022-11-21T04:31:10.722Z,99.58
2022-11-21T04:33:39.204Z,99.48
2022-11-21T04:36:07.372Z,99.74
2022-11-21T04:38:33.840Z,99.80
2022-11-21T04:41:00.607Z,99.96
2022-11-21T04:43:27.071Z,99.52
2022-11-21T04:45:53.515Z,100.00
2022-11-21T04:48:20.125Z,100.00
2022-11-21T04:50:46.860Z,99.66
2022-11-21T04:53:13.575Z,100.00
2022-11-21T04:55:39.967Z,100.00
2022-11-21T04:58:06.435Z,100.00
2022-11-21T05:00:32.775Z,100.00
2022-11-21T05:03:05.399Z,100.00
2022-11-21T05:05:32.089Z,100.00
2022-11-21T05:07:58.778Z,100.00
2022-11-21T05:10:25.473Z,100.00
2022-11-21T05:13:18.427Z,99.92
2022-11-21T05:15:45.536Z,100.00
2022-11-21T05:18:11.960Z,100.00
2022-11-21T05:20:38.374Z,99.95
2022-11-21T05:23:04.870Z,100.00
2022-11-21T05:25:31.343Z,100.00
2022-11-21T05:27:57.881Z,100.00
2022-11-21T05:30:24.308Z,100.00
2022-11-21T05:32:50.775Z,100.00
2022-11-21T05:35:17.252Z,100.00
2022-11-21T05:37:43.712Z,100.00
2022-11-21T05:40:10.728Z,100.00
2022-11-21T05:43:00.830Z,100.00
2022-11-21T05:45:27.533Z,100.00
2022-11-21T05:47:53.995Z,100.00
2022-11-21T05:50:20.352Z,100.00
2022-11-21T05:52:46.940Z,100.00
2022-11-21T05:55:13.430Z,100.00
2022-11-21T05:57:39.811Z,100.00
2022-11-21T06:00:06.704Z,100.00
2022-11-21T06:02:51.760Z,100.00
2022-11-21T06:05:18.095Z,100.00
2022-11-21T06:07:44.742Z,100.00
2022-11-21T06:10:11.312Z,100.00
2022-11-21T06:12:37.740Z,100.00
2022-11-21T06:15:04.443Z,100.00
2022-11-21T06:17:30.879Z,100.00
2022-11-21T06:19:57.282Z,100.00
2022-11-21T06:22:23.645Z,100.00
2022-11-21T06:24:50.381Z,100.00
2022-11-21T06:27:16.756Z,100.00
2022-11-21T06:29:43.278Z,100.00
2022-11-21T06:32:09.712Z,100.00
2022-11-21T06:34:36.048Z,100.00
2022-11-21T06:37:02.636Z,100.00
2022-11-21T06:39:28.957Z,100.00
2022-11-21T06:41:55.454Z,100.00
2022-11-21T06:44:21.856Z,100.00
2022-11-21T06:46:51.283Z,100.00
2022-11-21T06:49:18.378Z,100.00
2022-11-21T06:51:44.807Z,100.00
2022-11-21T06:54:15.224Z,100.00
2022-11-21T06:56:43.169Z,100.00
2022-11-21T06:59:09.600Z,100.00
2022-11-21T07:01:36.096Z,100.00
2022-11-21T07:04:02.620Z,100.00
2022-11-21T07:06:29.031Z,100.00
2022-11-21T07:11:42.249Z,100.00
2022-11-21T07:14:09.467Z,100.00
2022-11-21T07:16:36.070Z,100.00
2022-11-21T07:19:02.758Z,100.00
2022-11-21T07:21:29.196Z,100.00
2022-11-21T07:23:55.597Z,100.00
2022-11-21T07:26:22.038Z,100.00
2022-11-21T07:28:49.537Z,100.00
2022-11-21T07:31:16.008Z,100.00
2022-11-21T07:33:46.861Z,100.00
2022-11-21T07:36:13.550Z,100.00
2022-11-21T07:38:41.344Z,100.00
2022-11-21T07:41:08.299Z,100.00
2022-11-21T07:43:34.651Z,100.00
2022-11-21T07:46:01.266Z,100.00
2022-11-21T07:48:27.753Z,100.00
2022-11-21T07:50:54.095Z,100.00
2022-11-21T07:53:20.451Z,100.00
2022-11-21T07:55:46.795Z,100.00
2022-11-21T07:58:16.417Z,100.00
2022-11-21T08:00:43.072Z,100.00
2022-11-21T08:03:11.886Z,100.00
2022-11-21T08:05:42.517Z,100.00
2022-11-21T08:08:10.479Z,100.00
2022-11-21T08:10:38.990Z,100.00
2022-11-21T08:13:05.878Z,100.00
2022-11-21T08:15:32.358Z,100.00
2022-11-21T08:17:58.864Z,100.00
2022-11-21T08:20:25.380Z,100.00
2022-11-21T08:22:52.019Z,100.00
2022-11-21T08:25:18.650Z,100.00
2022-11-21T08:27:45.128Z,100.00
2022-11-21T08:30:12.420Z,100.00
2022-11-21T08:32:38.806Z,100.00
2022-11-21T08:35:05.666Z,100.00
2022-11-21T08:37:32.122Z,100.00
2022-11-21T08:39:59.017Z,100.00
2022-11-21T08:42:25.864Z,100.00
2022-11-21T08:44:52.711Z,100.00
2022-11-21T08:47:20.615Z,100.00
2022-11-21T08:49:48.112Z,100.00
2022-11-21T08:52:17.306Z,100.00
2022-11-21T08:54:47.508Z,100.00
2022-11-21T08:57:13.993Z,100.00
2022-11-21T08:59:40.466Z,100.00
2022-11-21T09:02:07.233Z,100.00
2022-11-21T09:04:33.790Z,100.00
2022-11-21T09:07:00.733Z,100.00
2022-11-21T09:09:27.214Z,100.00
2022-11-21T09:11:53.613Z,100.00
2022-11-21T09:14:38.832Z,100.00
2022-11-21T09:17:23.552Z,100.00
2022-11-21T09:19:49.898Z,100.00
2022-11-21T09:22:16.357Z,100.00
2022-11-21T09:24:42.688Z,100.00
2022-11-21T09:27:09.138Z,100.00
2022-11-21T09:29:35.511Z,100.00
2022-11-21T09:32:01.933Z,100.00
2022-11-21T09:34:28.789Z,100.00
2022-11-21T09:36:56.649Z,100.00
2022-11-21T09:39:23.090Z,100.00
2022-11-21T09:42:06.188Z,100.00
2022-11-21T09:44:47.675Z,100.00
2022-11-21T09:47:32.380Z,100.00
2022-11-21T09:50:26.725Z,100.00
2022-11-21T09:53:00.376Z,100.00
2022-11-21T09:55:37.150Z,100.00
2022-11-21T09:58:29.778Z,100.00
2022-11-21T10:00:56.253Z,100.00
2022-11-21T10:03:27.406Z,100.00
2022-11-21T10:06:06.187Z,100.00
2022-11-21T10:08:46.041Z,100.00
2022-11-21T10:12:02.451Z,100.00
2022-11-21T10:14:58.927Z,100.00
2022-11-21T10:17:34.268Z,100.00
2022-11-21T10:20:22.324Z,100.00
2022-11-21T10:23:34.288Z,100.00
2022-11-21T10:26:19.864Z,100.00
2022-11-21T10:28:59.264Z,100.00
2022-11-21T10:31:28.400Z,100.00
2022-11-21T10:33:57.037Z,100.00
2022-11-21T10:36:29.800Z,100.00
2022-11-21T10:39:02.832Z,100.00
2022-11-21T10:41:58.820Z,100.00
2022-11-21T10:44:46.505Z,100.00
2022-11-21T10:47:27.491Z,100.00
2022-11-21T10:50:09.218Z,100.00
2022-11-21T10:52:46.091Z,100.00
2022-11-21T10:55:14.758Z,100.00
2022-11-21T10:57:48.054Z,100.00
2022-11-21T11:00:16.895Z,100.00
2022-11-21T11:03:02.251Z,100.00
2022-11-21T11:05:30.027Z,100.00
2022-11-21T11:08:12.881Z,100.00
2022-11-21T11:10:39.272Z,100.00
2022-11-21T11:13:50.826Z,100.00
2022-11-21T11:16:23.393Z,100.00
2022-11-21T11:19:00.176Z,100.00
2022-11-21T11:21:42.068Z,100.00
2022-11-21T11:24:11.395Z,100.00
2022-11-21T11:27:02.463Z,100.00
2022-11-21T11:29:31.357Z,100.00
2022-11-21T11:32:21.967Z,100.00
2022-11-21T11:35:03.039Z,100.00
2022-11-21T11:37:41.123Z,100.00
2022-11-21T11:40:26.716Z,100.00
2022-11-21T11:43:36.712Z,100.00
2022-11-21T11:46:37.511Z,100.00
2022-11-21T11:49:20.426Z,100.00
2022-11-21T11:51:57.090Z,100.00
2022-11-21T11:54:38.658Z,100.00
2022-11-21T11:57:05.369Z,100.00
2022-11-21T11:59:40.008Z,100.00
2022-11-21T12:02:18.458Z,100.00
2022-11-21T12:05:09.398Z,100.00
2022-11-21T12:11:09.547Z,100.00
2022-11-21T12:13:37.046Z,100.00
2022-11-21T12:16:13.400Z,100.00
2022-11-21T12:18:51.300Z,100.00
2022-11-21T12:21:21.349Z,100.00
2022-11-21T12:23:55.965Z,100.00
2022-11-21T12:26:31.205Z,100.00
2022-11-21T12:29:28.894Z,100.00
2022-11-21T12:32:20.512Z,100.00
2022-11-21T12:35:02.281Z,100.00
2022-11-21T12:37:31.945Z,100.00
2022-11-21T12:40:04.447Z,100.00
2022-11-21T12:42:50.580Z,100.00
2022-11-21T12:45:29.340Z,100.00
2022-11-21T12:48:35.202Z,100.00
2022-11-21T12:51:46.011Z,100.00
2022-11-21T12:54:42.026Z,100.00
2022-11-21T12:57:17.452Z,100.00
2022-11-21T13:00:00.560Z,100.00
2022-11-21T13:03:04.560Z,100.00
2022-11-21T13:05:35.905Z,100.00
2022-11-21T13:08:07.834Z,100.00
2022-11-21T13:10:34.512Z,100.00
2022-11-21T13:13:22.051Z,100.00
2022-11-21T13:16:02.607Z,100.00
2022-11-21T13:18:35.954Z,100.00
2022-11-21T13:21:02.743Z,100.00
2022-11-21T13:23:31.885Z,100.00
2022-11-21T13:25:58.288Z,100.00
2022-11-21T13:28:31.438Z,100.00
2022-11-21T13:31:00.933Z,100.00
2022-11-21T13:33:37.060Z,100.00
2022-11-21T13:36:12.854Z,100.00
2022-11-21T13:38:51.091Z,100.00
2022-11-21T13:41:54.536Z,100.00
2022-11-21T13:44:33.477Z,100.00
2022-11-21T13:47:15.004Z,100.00
2022-11-21T13:49:56.627Z,100.00
2022-11-21T13:52:44.644Z,100.00
2022-11-21T13:55:35.850Z,100.00
2022-11-21T13:58:11.612Z,100.00
2022-11-21T14:01:12.302Z,100.00
2022-11-21T14:03:44.843Z,100.00
2022-11-21T14:06:34.972Z,100.00
2022-11-21T14:09:16.628Z,100.00
2022-11-21T14:11:54.135Z,100.00
2022-11-21T14:14:40.757Z,100.00
2022-11-21T14:17:20.665Z,100.00
2022-11-21T14:19:47.529Z,100.00
2022-11-21T14:22:27.214Z,100.00
2022-11-21T14:24:58.175Z,100.00
2022-11-21T14:27:30.936Z,100.00
2022-11-21T14:29:57.405Z,100.00
2022-11-21T14:32:30.759Z,100.00
2022-11-21T14:35:20.329Z,100.00
2022-11-21T14:37:48.165Z,100.00
2022-11-21T14:40:21.496Z,100.00
2022-11-21T14:42:48.002Z,100.00
2022-11-21T14:45:23.818Z,100.00
2022-11-21T14:47:52.350Z,100.00
2022-11-21T14:50:24.290Z,100.00
2022-11-21T14:52:57.448Z,100.00
2022-11-21T14:55:30.728Z,100.00
2022-11-21T14:58:02.281Z,100.00
2022-11-21T15:00:57.883Z,100.00
2022-11-21T15:03:22.366Z,100.00
2022-11-21T15:06:07.312Z,100.00
2022-11-21T15:11:48.995Z,100.00
2022-11-21T15:14:42.567Z,100.00
2022-11-21T15:17:15.986Z,100.00
2022-11-21T15:19:43.704Z,100.00
2022-11-21T15:22:28.516Z,100.00
2022-11-21T15:25:17.487Z,100.00
2022-11-21T15:28:09.856Z,100.00
2022-11-21T15:30:38.071Z,100.00
2022-11-21T15:33:12.747Z,100.00
2022-11-21T15:35:51.019Z,100.00
2022-11-21T15:38:20.417Z,100.00
2022-11-21T15:41:08.255Z,100.00
2022-11-21T15:43:48.088Z,100.00
2022-11-21T15:46:23.921Z,100.00
2022-11-21T15:48:51.615Z,100.00
2022-11-21T15:51:43.972Z,100.00
2022-11-21T15:54:10.434Z,100.00
2022-11-21T15:56:36.964Z,100.00
2022-11-21T15:59:03.734Z,100.00
2022-11-21T16:01:31.101Z,100.00
2022-11-21T16:03:59.563Z,100.00
2022-11-21T16:06:26.237Z,100.00
2022-11-21T16:08:52.695Z,100.00
2022-11-21T16:11:29.309Z,100.00
2022-11-21T16:13:58.786Z,100.00
2022-11-21T16:16:28.110Z,100.00
2022-11-21T16:18:55.674Z,100.00
2022-11-21T16:21:22.261Z,100.00
2022-11-21T16:23:48.785Z,100.00
2022-11-21T16:26:15.781Z,100.00
2022-11-21T16:28:42.298Z,100.00
2022-11-21T16:31:19.681Z,100.00
2022-11-21T16:33:46.998Z,100.00
2022-11-21T16:36:13.637Z,100.00
2022-11-21T16:38:42.508Z,100.00
2022-11-21T16:41:08.921Z,100.00
2022-11-21T16:43:35.329Z,100.00
2022-11-21T16:46:09.415Z,100.00
2022-11-21T16:48:35.881Z,100.00
2022-11-21T16:51:14.104Z,100.00
2022-11-21T16:53:41.693Z,100.00
2022-11-21T16:56:09.561Z,100.00
2022-11-21T16:58:37.458Z,100.00
2022-11-21T17:01:12.305Z,100.00
2022-11-21T17:03:39.639Z,100.00
2022-11-21T17:06:06.854Z,100.00
2022-11-21T17:08:34.144Z,100.00
2022-11-21T17:11:12.550Z,100.00
2022-11-21T17:13:39.123Z,100.00
2022-11-21T17:16:06.956Z,100.00
2022-11-21T17:18:33.583Z,100.00
2022-11-21T17:21:07.231Z,100.00
2022-11-21T17:23:34.786Z,100.00
2022-11-21T17:26:06.059Z,100.00
2022-11-21T17:28:33.332Z,100.00
2022-11-21T17:31:00.397Z,100.00
2022-11-21T17:33:27.597Z,100.00
2022-11-21T17:35:54.171Z,100.00
2022-11-21T17:38:20.678Z,100.00
2022-11-21T17:40:47.054Z,100.00
2022-11-21T17:43:13.751Z,100.00
2022-11-21T17:45:40.239Z,100.00
2022-11-21T17:48:06.727Z,100.00
2022-11-21T17:50:33.111Z,100.00
2022-11-21T17:52:59.464Z,100.00
2022-11-21T17:55:25.865Z,100.00
2022-11-21T17:57:52.382Z,100.00
2022-11-21T18:00:19.083Z,100.00
2022-11-21T18:02:45.532Z,100.00
2022-11-21T18:05:12.097Z,100.00
2022-11-21T18:07:38.552Z,100.00
2022-11-21T18:10:27.858Z,100.00
2022-11-21T18:12:51.675Z,100.00
2022-11-21T18:15:18.014Z,100.00
2022-11-21T18:17:44.366Z,100.00
2022-11-21T18:20:11.140Z,100.00
2022-11-21T18:22:37.488Z,100.00
2022-11-21T18:25:04.050Z,100.00
2022-11-21T18:27:30.610Z,100.00
2022-11-21T18:29:56.981Z,100.00
2022-11-21T18:32:23.377Z,100.00
2022-11-21T18:34:49.785Z,100.00
2022-11-21T18:37:16.217Z,100.00
2022-11-21T18:39:42.665Z,100.00
2022-11-21T18:42:09.038Z,100.00
2022-11-21T18:44:35.370Z,100.00
2022-11-21T18:47:01.770Z,100.00
2022-11-21T18:49:28.448Z,100.00
2022-11-21T18:51:55.161Z,100.00
2022-11-21T18:54:21.561Z,100.00
2022-11-21T18:56:47.986Z,100.00
2022-11-21T18:59:14.490Z,100.00
2022-11-21T19:01:41.204Z,100.00
2022-11-21T19:04:07.860Z,100.00
2022-11-21T19:06:34.475Z,100.00
2022-11-21T19:09:00.932Z,100.00
2022-11-21T19:11:29.278Z,100.00
2022-11-21T19:13:57.224Z,100.00
2022-11-21T19:16:25.828Z,100.00
2022-11-21T19:21:41.004Z,99.62
2022-11-21T19:24:07.744Z,99.75
2022-11-21T19:26:34.837Z,99.50
2022-11-21T19:29:01.618Z,99.73
2022-11-21T19:31:28.102Z,99.55
2022-11-21T19:33:54.519Z,99.44
2022-11-21T19:36:23.639Z,99.29
2022-11-21T19:38:51.586Z,99.48
2022-11-21T19:41:28.211Z,99.39
2022-11-21T19:43:57.594Z,99.44
2022-11-21T19:46:26.808Z,99.23
2022-11-21T19:48:55.859Z,99.21
2022-11-21T19:51:33.368Z,98.78
2022-11-21T19:54:02.388Z,98.89
2022-11-21T19:56:29.085Z,99.26
2022-11-21T19:58:56.821Z,98.58
2022-11-21T20:01:25.852Z,98.91
2022-11-21T20:03:55.657Z,99.24
2022-11-21T20:06:27.624Z,99.14
2022-11-21T20:08:59.903Z,98.84
2022-11-21T20:11:28.191Z,98.93
2022-11-21T20:13:54.865Z,98.95
2022-11-21T20:16:27.623Z,99.35
2022-11-21T20:18:56.843Z,98.93
2022-11-21T20:21:23.395Z,99.38
2022-11-21T20:23:50.770Z,99.33
2022-11-21T20:26:19.413Z,99.68
2022-11-21T20:28:46.086Z,99.62
2022-11-21T20:31:18.478Z,99.39
2022-11-21T20:33:47.388Z,100.00
2022-11-21T20:36:19.397Z,99.83
2022-11-21T20:38:57.912Z,99.98
2022-11-21T20:41:27.162Z,100.00
2022-11-21T20:46:45.638Z,100.00
2022-11-21T20:49:12.668Z,99.91
2022-11-21T20:54:26.593Z,100.00
2022-11-21T20:56:53.181Z,100.00
2022-11-21T20:59:19.564Z,100.00
2022-11-21T21:01:45.993Z,100.00
2022-11-21T21:04:12.680Z,100.00
2022-11-21T21:06:39.617Z,100.00
2022-11-21T21:09:09.186Z,100.00
2022-11-21T21:11:52.634Z,100.00
2022-11-21T21:14:22.916Z,100.00
2022-11-21T21:16:49.933Z,100.00
2022-11-21T21:19:16.503Z,100.00
2022-11-21T21:21:43.313Z,100.00
2022-11-21T21:24:11.251Z,100.00
2022-11-21T21:26:43.000Z,100.00
2022-11-21T21:29:11.568Z,100.00
2022-11-21T21:31:37.922Z,100.00
2022-11-21T21:34:04.460Z,100.00
2022-11-21T21:36:31.974Z,100.00
2022-11-21T21:38:59.899Z,100.00
2022-11-21T21:41:27.919Z,100.00
2022-11-21T21:43:55.540Z,100.00
2022-11-21T21:46:24.459Z,100.00
2022-11-21T21:48:56.250Z,100.00
2022-11-21T21:51:28.202Z,100.00
2022-11-21T21:53:56.743Z,100.00
2022-11-21T21:56:24.693Z,100.00
2022-11-21T21:58:51.390Z,100.00
2022-11-21T22:01:23.133Z,100.00
2022-11-21T22:03:54.021Z,100.00
2022-11-21T22:06:20.511Z,100.00
2022-11-21T22:08:48.623Z,100.00
2022-11-21T22:11:21.779Z,100.00
2022-11-21T22:13:54.291Z,100.00
2022-11-21T22:16:20.870Z,100.00
2022-11-21T22:18:47.415Z,100.00
2022-11-21T22:21:28.051Z,100.00
2022-11-21T22:24:23.648Z,100.00
2022-11-21T22:26:42.675Z,100.00
2022-11-21T22:29:09.131Z,100.00
2022-11-21T22:31:35.539Z,100.00
2022-11-21T22:34:02.125Z,100.00
2022-11-21T22:36:28.772Z,100.00
2022-11-21T22:38:56.485Z,100.00
2022-11-21T22:41:27.058Z,100.00
2022-11-21T22:43:58.980Z,100.00
2022-11-21T22:46:27.195Z,100.00
2022-11-21T22:48:54.002Z,100.00
2022-11-21T22:51:23.355Z,100.00
2022-11-21T22:53:50.458Z,100.00
2022-11-21T22:56:19.369Z,100.00
2022-11-21T22:58:46.609Z,100.00
2022-11-21T23:01:24.666Z,100.00
2022-11-21T23:03:51.925Z,100.00
2022-11-21T23:06:21.359Z,100.00
2022-11-21T23:08:48.392Z,100.00
2022-11-21T23:11:17.591Z,100.00
2022-11-21T23:13:46.871Z,100.00
2022-11-21T23:16:14.912Z,100.00
2022-11-21T23:18:41.557Z,100.00
2022-11-21T23:21:08.860Z,100.00
2022-11-21T23:23:35.709Z,100.00
2022-11-21T23:26:02.576Z,100.00
2022-11-21T23:28:29.049Z,100.00
2022-11-21T23:30:55.552Z,100.00
2022-11-21T23:33:22.391Z,100.00
2022-11-21T23:35:49.006Z,100.00
2022-11-21T23:38:17.576Z,100.00
2022-11-21T23:40:48.680Z,100.00
2022-11-21T23:43:16.209Z,100.00
2022-11-21T23:45:43.432Z,100.00
2022-11-21T23:48:10.308Z,100.00
2022-11-21T23:50:36.851Z,100.00
2022-11-21T23:53:03.402Z,100.00
2022-11-21T23:55:29.818Z,100.00
2022-11-21T23:57:56.365Z,100.00
